Anoka, Minnesota
Current Conditions -  °F | °C
As of 10:34 PM on Tuesday 21 Oct 2014 (Local Time) from KANE Reporting Station
Clear Clear  
Wind Chill: 44°   Ceiling: Unl
Heat Index: 46°   Visibility: 10mi
Dew Point: 39°   Wind: 6mph
Humidity: 76%   Direction: 120°ESE
Pressure: 30.18"   Gusts: NA
Location:  45.2°N, 93.39°W
Report Text: KANE 220334Z AUTO 12005KT 10SM CLR 08/04 A3018 RMK AO2
Loading
Personal Weather Stations






























Interactive Weather Map
Tropical Storm Tracking
New forecast layout! Learn more

10-Day Weather Forecast

Advertisements
Track Severe Weather on mobile